sensor_id;sensor_type;location;lat;lon;timestamp;P1;durP1;ratioP1;P2;durP2;ratioP2
30466;SDS011;17258;52.560;13.046;2023-07-28T00:03:02;0.60;;;0.60;;
30466;SDS011;17258;52.560;13.046;2023-07-28T00:13:03;0.60;;;0.60;;
30466;SDS011;17258;52.560;13.046;2023-07-28T00:23:03;0.70;;;0.70;;
30466;SDS011;17258;52.560;13.046;2023-07-28T00:33:04;1.00;;;0.60;;
30466;SDS011;17258;52.560;13.046;2023-07-28T00:43:05;1.10;;;0.70;;
30466;SDS011;17258;52.560;13.046;2023-07-28T00:53:05;0.83;;;0.50;;
30466;SDS011;17258;52.560;13.046;2023-07-28T01:03:07;0.57;;;0.57;;
30466;SDS011;17258;52.560;13.046;2023-07-28T01:13:07;0.70;;;0.70;;
30466;SDS011;17258;52.560;13.046;2023-07-28T01:23:09;0.73;;;0.63;;
30466;SDS011;17258;52.560;13.046;2023-07-28T01:33:14;0.70;;;0.70;;
30466;SDS011;17258;52.560;13.046;2023-07-28T01:43:15;0.80;;;0.80;;
30466;SDS011;17258;52.560;13.046;2023-07-28T01:53:15;1.17;;;1.00;;
30466;SDS011;17258;52.560;13.046;2023-07-28T02:03:16;1.40;;;1.30;;
30466;SDS011;17258;52.560;13.046;2023-07-28T02:13:17;1.23;;;1.13;;
30466;SDS011;17258;52.560;13.046;2023-07-28T02:23:17;3.23;;;1.77;;
30466;SDS011;17258;52.560;13.046;2023-07-28T02:33:18;1.87;;;1.77;;
30466;SDS011;17258;52.560;13.046;2023-07-28T02:43:18;2.07;;;1.83;;
30466;SDS011;17258;52.560;13.046;2023-07-28T02:53:20;1.77;;;1.67;;
30466;SDS011;17258;52.560;13.046;2023-07-28T03:03:20;2.08;;;1.88;;
30466;SDS011;17258;52.560;13.046;2023-07-28T03:13:21;1.70;;;1.57;;
30466;SDS011;17258;52.560;13.046;2023-07-28T03:23:21;2.77;;;2.30;;
30466;SDS011;17258;52.560;13.046;2023-07-28T03:33:22;3.43;;;2.20;;
30466;SDS011;17258;52.560;13.046;2023-07-28T03:43:23;1.93;;;1.83;;
30466;SDS011;17258;52.560;13.046;2023-07-28T03:53:23;2.00;;;1.80;;
30466;SDS011;17258;52.560;13.046;2023-07-28T04:03:24;2.63;;;2.23;;
30466;SDS011;17258;52.560;13.046;2023-07-28T04:13:25;3.20;;;2.33;;
30466;SDS011;17258;52.560;13.046;2023-07-28T04:23:25;2.07;;;1.80;;
30466;SDS011;17258;52.560;13.046;2023-07-28T04:33:26;1.80;;;1.70;;
30466;SDS011;17258;52.560;13.046;2023-07-28T04:43:27;1.80;;;1.70;;
30466;SDS011;17258;52.560;13.046;2023-07-28T04:53:28;6.95;;;2.47;;
30466;SDS011;17258;52.560;13.046;2023-07-28T05:03:28;2.30;;;2.10;;
30466;SDS011;17258;52.560;13.046;2023-07-28T05:13:29;1.73;;;1.63;;
30466;SDS011;17258;52.560;13.046;2023-07-28T05:23:30;2.47;;;2.27;;
30466;SDS011;17258;52.560;13.046;2023-07-28T05:33:31;2.33;;;1.90;;
30466;SDS011;17258;52.560;13.046;2023-07-28T05:43:31;1.92;;;1.80;;
30466;SDS011;17258;52.560;13.046;2023-07-28T05:53:32;1.45;;;1.35;;
30466;SDS011;17258;52.560;13.046;2023-07-28T06:03:33;2.23;;;1.33;;
30466;SDS011;17258;52.560;13.046;2023-07-28T06:13:34;1.90;;;1.80;;
30466;SDS011;17258;52.560;13.046;2023-07-28T06:23:34;3.13;;;2.93;;
30466;SDS011;17258;52.560;13.046;2023-07-28T06:33:36;8.83;;;8.43;;
30466;SDS011;17258;52.560;13.046;2023-07-28T06:43:37;3.13;;;2.92;;
30466;SDS011;17258;52.560;13.046;2023-07-28T06:53:38;2.13;;;2.03;;
30466;SDS011;17258;52.560;13.046;2023-07-28T07:03:38;10.83;;;10.23;;
30466;SDS011;17258;52.560;13.046;2023-07-28T07:13:39;9.80;;;9.40;;
30466;SDS011;17258;52.560;13.046;2023-07-28T07:23:39;10.23;;;9.73;;
30466;SDS011;17258;52.560;13.046;2023-07-28T07:33:40;10.53;;;10.03;;
30466;SDS011;17258;52.560;13.046;2023-07-28T07:43:42;10.93;;;10.43;;
30466;SDS011;17258;52.560;13.046;2023-07-28T07:53:42;12.70;;;12.00;;
30466;SDS011;17258;52.560;13.046;2023-07-28T08:03:43;9.87;;;9.37;;
30466;SDS011;17258;52.560;13.046;2023-07-28T08:13:43;12.00;;;11.40;;
30466;SDS011;17258;52.560;13.046;2023-07-28T08:23:45;12.63;;;12.02;;
30466;SDS011;17258;52.560;13.046;2023-07-28T08:33:46;12.63;;;12.03;;
30466;SDS011;17258;52.560;13.046;2023-07-28T08:43:47;13.18;;;12.48;;
30466;SDS011;17258;52.560;13.046;2023-07-28T08:53:47;11.60;;;11.00;;
30466;SDS011;17258;52.560;13.046;2023-07-28T09:03:48;13.70;;;13.00;;
30466;SDS011;17258;52.560;13.046;2023-07-28T09:13:49;13.45;;;12.70;;
30466;SDS011;17258;52.560;13.046;2023-07-28T09:23:52;13.90;;;13.20;;
30466;SDS011;17258;52.560;13.046;2023-07-28T09:33:53;1.38;;;1.38;;
30466;SDS011;17258;52.560;13.046;2023-07-28T09:43:54;10.90;;;10.40;;
30466;SDS011;17258;52.560;13.046;2023-07-28T09:53:56;10.20;;;9.70;;
30466;SDS011;17258;52.560;13.046;2023-07-28T10:04:05;9.40;;;9.00;;
30466;SDS011;17258;52.560;13.046;2023-07-28T10:14:08;9.43;;;9.02;;
30466;SDS011;17258;52.560;13.046;2023-07-28T10:24:11;7.28;;;6.90;;
30466;SDS011;17258;52.560;13.046;2023-07-28T10:34:15;1.10;;;1.10;;
30466;SDS011;17258;52.560;13.046;2023-07-28T10:44:17;2.35;;;2.25;;
30466;SDS011;17258;52.560;13.046;2023-07-28T10:54:17;0.80;;;0.80;;
30466;SDS011;17258;52.560;13.046;2023-07-28T11:04:20;2.42;;;2.22;;
30466;SDS011;17258;52.560;13.046;2023-07-28T11:14:21;2.00;;;1.90;;
30466;SDS011;17258;52.560;13.046;2023-07-28T11:24:22;11.35;;;10.85;;
30466;SDS011;17258;52.560;13.046;2023-07-28T11:34:24;8.30;;;7.90;;
30466;SDS011;17258;52.560;13.046;2023-07-28T11:44:24;10.70;;;10.00;;
30466;SDS011;17258;52.560;13.046;2023-07-28T11:54:26;11.52;;;11.02;;
30466;SDS011;17258;52.560;13.046;2023-07-28T12:04:28;9.40;;;9.00;;
30466;SDS011;17258;52.560;13.046;2023-07-28T12:14:33;12.00;;;11.40;;
30466;SDS011;17258;52.560;13.046;2023-07-28T12:24:35;13.65;;;12.73;;
30466;SDS011;17258;52.560;13.046;2023-07-28T12:34:35;11.95;;;11.35;;
30466;SDS011;17258;52.560;13.046;2023-07-28T12:44:37;11.30;;;10.70;;
30466;SDS011;17258;52.560;13.046;2023-07-28T12:54:38;11.70;;;11.10;;
30466;SDS011;17258;52.560;13.046;2023-07-28T13:04:39;13.95;;;13.25;;
30466;SDS011;17258;52.560;13.046;2023-07-28T13:14:40;11.60;;;11.00;;
30466;SDS011;17258;52.560;13.046;2023-07-28T13:24:40;12.70;;;12.10;;
30466;SDS011;17258;52.560;13.046;2023-07-28T13:34:41;11.60;;;11.10;;
30466;SDS011;17258;52.560;13.046;2023-07-28T13:44:42;11.60;;;11.00;;
30466;SDS011;17258;52.560;13.046;2023-07-28T13:54:43;11.55;;;11.00;;
30466;SDS011;17258;52.560;13.046;2023-07-28T14:04:44;11.40;;;10.90;;
30466;SDS011;17258;52.560;13.046;2023-07-28T14:14:46;12.23;;;11.53;;
30466;SDS011;17258;52.560;13.046;2023-07-28T14:24:46;11.23;;;10.63;;
30466;SDS011;17258;52.560;13.046;2023-07-28T14:34:47;13.23;;;12.53;;
30466;SDS011;17258;52.560;13.046;2023-07-28T14:44:48;14.43;;;13.43;;
30466;SDS011;17258;52.560;13.046;2023-07-28T14:54:48;13.97;;;13.27;;
30466;SDS011;17258;52.560;13.046;2023-07-28T15:04:49;13.80;;;13.10;;
30466;SDS011;17258;52.560;13.046;2023-07-28T15:14:51;14.27;;;13.57;;
30466;SDS011;17258;52.560;13.046;2023-07-28T15:24:51;14.60;;;13.80;;
30466;SDS011;17258;52.560;13.046;2023-07-28T15:34:52;15.70;;;14.87;;
30466;SDS011;17258;52.560;13.046;2023-07-28T15:44:53;15.80;;;14.90;;
30466;SDS011;17258;52.560;13.046;2023-07-28T15:54:53;16.48;;;15.52;;
30466;SDS011;17258;52.560;13.046;2023-07-28T16:04:54;16.17;;;15.27;;
30466;SDS011;17258;52.560;13.046;2023-07-28T16:14:55;15.73;;;14.93;;
30466;SDS011;17258;52.560;13.046;2023-07-28T16:24:56;12.68;;;11.98;;
30466;SDS011;17258;52.560;13.046;2023-07-28T16:34:57;13.40;;;12.60;;
30466;SDS011;17258;52.560;13.046;2023-07-28T16:44:57;1.70;;;1.60;;
30466;SDS011;17258;52.560;13.046;2023-07-28T16:54:58;3.20;;;3.00;;
30466;SDS011;17258;52.560;13.046;2023-07-28T17:04:59;7.68;;;7.28;;
30466;SDS011;17258;52.560;13.046;2023-07-28T17:15:00;16.93;;;15.97;;
30466;SDS011;17258;52.560;13.046;2023-07-28T17:25:00;16.90;;;15.90;;
30466;SDS011;17258;52.560;13.046;2023-07-28T17:35:01;16.83;;;15.82;;
30466;SDS011;17258;52.560;13.046;2023-07-28T17:45:02;15.95;;;15.05;;
30466;SDS011;17258;52.560;13.046;2023-07-28T17:55:07;5.00;;;4.80;;
30466;SDS011;17258;52.560;13.046;2023-07-28T18:05:10;0.90;;;0.90;;
30466;SDS011;17258;52.560;13.046;2023-07-28T18:15:10;5.30;;;4.80;;
30466;SDS011;17258;52.560;13.046;2023-07-28T18:25:12;0.97;;;0.83;;
30466;SDS011;17258;52.560;13.046;2023-07-28T18:35:12;0.80;;;0.80;;
30466;SDS011;17258;52.560;13.046;2023-07-28T18:45:14;0.73;;;0.73;;
30466;SDS011;17258;52.560;13.046;2023-07-28T18:55:14;0.80;;;0.80;;
30466;SDS011;17258;52.560;13.046;2023-07-28T19:05:15;0.60;;;0.60;;
30466;SDS011;17258;52.560;13.046;2023-07-28T19:15:16;4.30;;;0.70;;
30466;SDS011;17258;52.560;13.046;2023-07-28T19:25:16;0.90;;;0.90;;
30466;SDS011;17258;52.560;13.046;2023-07-28T19:35:17;0.90;;;0.90;;
30466;SDS011;17258;52.560;13.046;2023-07-28T19:45:18;1.10;;;1.00;;
30466;SDS011;17258;52.560;13.046;2023-07-28T19:55:19;1.15;;;1.15;;
30466;SDS011;17258;52.560;13.046;2023-07-28T20:05:20;2.10;;;1.57;;
30466;SDS011;17258;52.560;13.046;2023-07-28T20:15:21;2.05;;;1.40;;
30466;SDS011;17258;52.560;13.046;2023-07-28T20:25:22;5.37;;;1.37;;
30466;SDS011;17258;52.560;13.046;2023-07-28T20:35:24;0.93;;;0.93;;
30466;SDS011;17258;52.560;13.046;2023-07-28T20:45:24;1.77;;;1.27;;
30466;SDS011;17258;52.560;13.046;2023-07-28T20:55:27;1.35;;;1.25;;
30466;SDS011;17258;52.560;13.046;2023-07-28T21:05:28;3.33;;;1.08;;
30466;SDS011;17258;52.560;13.046;2023-07-28T21:15:28;1.30;;;1.20;;
30466;SDS011;17258;52.560;13.046;2023-07-28T21:25:29;1.97;;;1.77;;
30466;SDS011;17258;52.560;13.046;2023-07-28T21:35:30;1.70;;;1.60;;
30466;SDS011;17258;52.560;13.046;2023-07-28T21:45:31;1.98;;;1.88;;
30466;SDS011;17258;52.560;13.046;2023-07-28T21:55:32;1.73;;;1.60;;
30466;SDS011;17258;52.560;13.046;2023-07-28T22:05:34;1.70;;;1.55;;
30466;SDS011;17258;52.560;13.046;2023-07-28T22:15:34;1.53;;;1.43;;
30466;SDS011;17258;52.560;13.046;2023-07-28T22:25:44;1.40;;;1.30;;
30466;SDS011;17258;52.560;13.046;2023-07-28T22:35:46;1.42;;;1.33;;
30466;SDS011;17258;52.560;13.046;2023-07-28T22:45:46;1.40;;;1.30;;
30466;SDS011;17258;52.560;13.046;2023-07-28T22:55:47;1.53;;;1.40;;
30466;SDS011;17258;52.560;13.046;2023-07-28T23:05:48;1.47;;;1.43;;
30466;SDS011;17258;52.560;13.046;2023-07-28T23:15:48;1.20;;;1.20;;
30466;SDS011;17258;52.560;13.046;2023-07-28T23:25:49;1.23;;;1.23;;
30466;SDS011;17258;52.560;13.046;2023-07-28T23:35:50;2.23;;;1.40;;
30466;SDS011;17258;52.560;13.046;2023-07-28T23:45:50;1.53;;;1.43;;
30466;SDS011;17258;52.560;13.046;2023-07-28T23:55:53;1.63;;;1.52;;
